createdAt,value
2022-12-17T00:00:01.780Z,969.09
2022-12-17T00:01:01.684Z,969.10
2022-12-17T00:02:01.618Z,969.13
2022-12-17T00:03:01.697Z,969.11
2022-12-17T00:04:01.775Z,969.18
2022-12-17T00:05:01.495Z,969.16
2022-12-17T00:06:01.396Z,969.15
2022-12-17T00:07:01.353Z,969.17
2022-12-17T00:08:01.250Z,969.19
2022-12-17T00:09:01.239Z,969.23
2022-12-17T00:10:01.168Z,969.25
2022-12-17T00:11:01.159Z,969.26
2022-12-17T00:12:00.984Z,969.27
2022-12-17T00:13:00.884Z,969.29
2022-12-17T00:14:00.937Z,969.28
2022-12-17T00:15:00.778Z,969.27
2022-12-17T00:16:00.916Z,969.27
2022-12-17T00:17:00.678Z,969.31
2022-12-17T00:18:01.300Z,969.29
2022-12-17T00:19:00.599Z,969.29
2022-12-17T00:20:00.849Z,969.31
2022-12-17T00:21:00.387Z,969.30
2022-12-17T00:22:00.392Z,969.29
2022-12-17T00:23:00.283Z,969.31
2022-12-17T00:24:00.435Z,969.26
2022-12-17T00:25:00.958Z,969.27
2022-12-17T00:26:00.228Z,969.23
2022-12-17T00:27:00.558Z,969.27
2022-12-17T00:28:00.116Z,969.27
2022-12-17T00:28:59.917Z,969.24
2022-12-17T00:29:59.929Z,969.28
2022-12-17T00:30:59.899Z,969.26
2022-12-17T00:31:59.710Z,969.28
2022-12-17T00:32:59.775Z,969.32
2022-12-17T00:33:59.921Z,969.31
2022-12-17T00:34:59.553Z,969.34
2022-12-17T00:35:59.569Z,969.35
2022-12-17T00:36:59.392Z,969.36
2022-12-17T00:37:59.300Z,969.36
2022-12-17T00:38:59.351Z,969.39
2022-12-17T00:39:59.582Z,969.42
2022-12-17T00:40:59.223Z,969.41
2022-12-17T00:41:59.183Z,969.36
2022-12-17T00:42:58.999Z,969.37
2022-12-17T00:43:59.042Z,969.42
2022-12-17T00:44:58.952Z,969.43
2022-12-17T00:45:58.849Z,969.43
2022-12-17T00:46:58.990Z,969.39
2022-12-17T00:47:58.758Z,969.40
2022-12-17T00:48:58.969Z,969.40
2022-12-17T00:49:58.540Z,969.41
2022-12-17T00:50:58.533Z,969.44
2022-12-17T00:51:58.605Z,969.45
2022-12-17T00:52:58.454Z,969.43
2022-12-17T00:53:58.491Z,969.42
2022-12-17T00:54:58.274Z,969.46
2022-12-17T00:55:58.376Z,969.46
2022-12-17T00:56:58.223Z,969.43
2022-12-17T00:57:58.193Z,969.47
2022-12-17T00:58:58.306Z,969.45
2022-12-17T00:59:58.040Z,969.44
2022-12-17T01:00:58.105Z,969.44
2022-12-17T01:01:58.089Z,969.46
2022-12-17T01:02:58.000Z,969.48
2022-12-17T01:03:57.804Z,969.49
2022-12-17T01:04:57.675Z,969.53
2022-12-17T01:05:57.537Z,969.57
2022-12-17T01:06:57.605Z,969.52
2022-12-17T01:07:57.548Z,969.54
2022-12-17T01:08:57.475Z,969.55
2022-12-17T01:09:57.431Z,969.56
2022-12-17T01:10:57.291Z,969.56
2022-12-17T01:11:57.482Z,969.58
2022-12-17T01:12:57.263Z,969.54
2022-12-17T01:13:57.186Z,969.55
2022-12-17T01:14:57.029Z,969.57
2022-12-17T01:15:56.966Z,969.58
2022-12-17T01:16:56.968Z,969.62
2022-12-17T01:17:57.015Z,969.59
2022-12-17T01:18:56.729Z,969.63
2022-12-17T01:19:57.595Z,969.68
2022-12-17T01:20:56.688Z,969.65
2022-12-17T01:21:57.474Z,969.61
2022-12-17T01:22:56.605Z,969.65
2022-12-17T01:23:56.385Z,969.63
2022-12-17T01:24:56.313Z,969.66
2022-12-17T01:25:56.478Z,969.68
2022-12-17T01:26:56.334Z,969.67
2022-12-17T01:27:56.272Z,969.69
2022-12-17T01:28:56.134Z,969.69
2022-12-17T01:29:56.012Z,969.72
2022-12-17T01:30:55.961Z,969.75
2022-12-17T01:31:55.975Z,969.74
2022-12-17T01:32:55.883Z,969.73
2022-12-17T01:33:55.853Z,969.79
2022-12-17T01:34:55.717Z,969.78
2022-12-17T01:35:55.672Z,969.78
2022-12-17T01:36:55.556Z,969.77
2022-12-17T01:37:55.547Z,969.80
2022-12-17T01:38:55.509Z,969.80
2022-12-17T01:39:55.416Z,969.84
2022-12-17T01:40:55.318Z,969.87
2022-12-17T01:41:55.277Z,969.85
2022-12-17T01:42:55.193Z,969.85
2022-12-17T01:43:55.163Z,969.88
2022-12-17T01:44:55.100Z,969.90
2022-12-17T01:45:55.060Z,969.90
2022-12-17T01:46:54.960Z,969.91
2022-12-17T01:47:56.467Z,969.94
2022-12-17T01:48:54.836Z,969.94
2022-12-17T01:49:54.762Z,969.96
2022-12-17T01:50:54.710Z,969.94
2022-12-17T01:51:54.641Z,969.96
2022-12-17T01:52:54.581Z,970.01
2022-12-17T01:53:54.506Z,969.98
2022-12-17T01:54:54.458Z,969.98
2022-12-17T01:55:54.376Z,970.02
2022-12-17T01:56:54.297Z,970.00
2022-12-17T01:57:54.258Z,970.02
2022-12-17T01:58:54.219Z,970.02
2022-12-17T01:59:54.169Z,970.01
2022-12-17T02:00:54.113Z,970.02
2022-12-17T02:01:54.234Z,970.04
2022-12-17T02:02:54.032Z,970.03
2022-12-17T02:03:53.875Z,970.04
2022-12-17T02:04:53.882Z,970.08
2022-12-17T02:05:53.761Z,970.08
2022-12-17T02:06:53.748Z,970.10
2022-12-17T02:07:53.686Z,970.10
2022-12-17T02:08:53.551Z,970.14
2022-12-17T02:09:53.509Z,970.13
2022-12-17T02:10:53.430Z,970.15
2022-12-17T02:11:53.432Z,970.14
2022-12-17T02:12:53.335Z,970.14
2022-12-17T02:13:53.256Z,970.17
2022-12-17T02:14:53.216Z,970.24
2022-12-17T02:15:53.120Z,970.18
2022-12-17T02:16:53.176Z,970.15
2022-12-17T02:17:53.019Z,970.18
2022-12-17T02:18:52.957Z,970.18
2022-12-17T02:19:52.877Z,970.17
2022-12-17T02:20:52.821Z,970.18
2022-12-17T02:21:52.796Z,970.20
2022-12-17T02:22:52.669Z,970.22
2022-12-17T02:23:52.630Z,970.22
2022-12-17T02:24:52.577Z,970.23
2022-12-17T02:25:52.510Z,970.24
2022-12-17T02:26:52.472Z,970.21
2022-12-17T02:27:52.360Z,970.22
2022-12-17T02:28:52.316Z,970.26
2022-12-17T02:29:52.221Z,970.26
2022-12-17T02:30:52.178Z,970.26
2022-12-17T02:31:52.222Z,970.21
2022-12-17T02:32:52.081Z,970.19
2022-12-17T02:33:52.000Z,970.19
2022-12-17T02:34:51.946Z,970.16
2022-12-17T02:35:51.876Z,970.16
2022-12-17T02:36:51.801Z,970.16
2022-12-17T02:37:51.811Z,970.16
2022-12-17T02:38:51.694Z,970.16
2022-12-17T02:39:51.608Z,970.18
2022-12-17T02:40:51.577Z,970.19
2022-12-17T02:41:51.653Z,970.17
2022-12-17T02:42:51.486Z,970.19
2022-12-17T02:43:51.358Z,970.19
2022-12-17T02:44:51.315Z,970.21
2022-12-17T02:45:51.282Z,970.21
2022-12-17T02:46:51.209Z,970.28
2022-12-17T02:47:51.135Z,970.29
2022-12-17T02:48:51.051Z,970.30
2022-12-17T02:49:51.014Z,970.31
2022-12-17T02:50:50.949Z,970.37
2022-12-17T02:51:50.876Z,970.36
2022-12-17T02:52:50.837Z,970.34
2022-12-17T02:53:50.742Z,970.35
2022-12-17T02:54:50.687Z,970.35
2022-12-17T02:55:50.627Z,970.35
2022-12-17T02:56:50.613Z,970.34
2022-12-17T02:57:53.766Z,970.38
2022-12-17T02:58:50.466Z,970.35
2022-12-17T02:59:50.375Z,970.37
2022-12-17T03:00:50.351Z,970.37
2022-12-17T03:01:50.411Z,970.35
2022-12-17T03:02:50.346Z,970.37
2022-12-17T03:03:50.692Z,970.38
2022-12-17T03:04:50.030Z,970.37
2022-12-17T03:05:49.970Z,970.37
2022-12-17T03:06:49.936Z,970.37
2022-12-17T03:07:49.868Z,970.33
2022-12-17T03:08:49.845Z,970.37
2022-12-17T03:09:49.731Z,970.33
2022-12-17T03:10:49.705Z,970.34
2022-12-17T03:11:49.589Z,970.37
2022-12-17T03:12:49.579Z,970.36
2022-12-17T03:13:49.531Z,970.38
2022-12-17T03:14:49.441Z,970.40
2022-12-17T03:15:49.423Z,970.36
2022-12-17T03:16:49.332Z,970.39
2022-12-17T03:17:49.233Z,970.43
2022-12-17T03:18:49.185Z,970.38
2022-12-17T03:19:49.135Z,970.38
2022-12-17T03:20:49.035Z,970.42
2022-12-17T03:21:49.007Z,970.43
2022-12-17T03:22:48.949Z,970.42
2022-12-17T03:23:48.884Z,970.43
2022-12-17T03:24:48.815Z,970.46
2022-12-17T03:25:48.747Z,970.43
2022-12-17T03:26:48.774Z,970.46
2022-12-17T03:27:48.596Z,970.46
2022-12-17T03:28:48.544Z,970.46
2022-12-17T03:29:48.485Z,970.50
2022-12-17T03:30:49.243Z,970.49
2022-12-17T03:31:48.344Z,970.47
2022-12-17T03:32:48.352Z,970.49
2022-12-17T03:33:48.217Z,970.47
2022-12-17T03:34:48.182Z,970.50
2022-12-17T03:35:48.092Z,970.52
2022-12-17T03:36:48.081Z,970.55
2022-12-17T03:37:47.950Z,970.54
2022-12-17T03:38:47.916Z,970.56
2022-12-17T03:39:47.850Z,970.58
2022-12-17T03:40:47.836Z,970.57
2022-12-17T03:41:47.736Z,970.56
2022-12-17T03:42:47.650Z,970.58
2022-12-17T03:43:47.588Z,970.57
2022-12-17T03:44:47.553Z,970.58
2022-12-17T03:45:47.554Z,970.59
2022-12-17T03:46:47.416Z,970.60
2022-12-17T03:47:47.335Z,970.60
2022-12-17T03:48:47.275Z,970.59
2022-12-17T03:49:47.226Z,970.57
2022-12-17T03:50:47.202Z,970.53
2022-12-17T03:51:47.089Z,970.57
2022-12-17T03:52:47.033Z,970.55
2022-12-17T03:53:47.000Z,970.59
2022-12-17T03:54:46.907Z,970.52
2022-12-17T03:55:46.834Z,970.53
2022-12-17T03:56:46.817Z,970.56
2022-12-17T03:57:46.690Z,970.58
2022-12-17T03:58:46.618Z,970.55
2022-12-17T03:59:46.617Z,970.52
2022-12-17T04:00:46.540Z,970.55
2022-12-17T04:01:46.597Z,970.55
2022-12-17T04:02:46.572Z,970.55
2022-12-17T04:03:46.388Z,970.61
2022-12-17T04:04:46.264Z,970.59
2022-12-17T04:05:46.251Z,970.63
2022-12-17T04:06:46.192Z,970.61
2022-12-17T04:07:46.103Z,970.61
2022-12-17T04:08:46.028Z,970.63
2022-12-17T04:09:45.961Z,970.59
2022-12-17T04:10:45.882Z,970.62
2022-12-17T04:11:45.866Z,970.60
2022-12-17T04:12:45.778Z,970.62
2022-12-17T04:13:46.096Z,970.59
2022-12-17T04:14:45.638Z,970.63
2022-12-17T04:15:45.675Z,970.64
2022-12-17T04:16:45.512Z,970.65
2022-12-17T04:17:45.458Z,970.64
2022-12-17T04:18:45.387Z,970.66
2022-12-17T04:19:45.371Z,970.63
2022-12-17T04:20:45.279Z,970.63
2022-12-17T04:21:45.258Z,970.66
2022-12-17T04:22:45.114Z,970.65
2022-12-17T04:23:45.049Z,970.68
2022-12-17T04:24:45.027Z,970.65
2022-12-17T04:25:44.972Z,970.71
2022-12-17T04:26:44.883Z,970.70
2022-12-17T04:27:44.844Z,970.71
2022-12-17T04:28:44.803Z,970.74
2022-12-17T04:29:44.693Z,970.74
2022-12-17T04:30:44.655Z,970.75
2022-12-17T04:31:44.557Z,970.76
2022-12-17T04:32:44.521Z,970.77
2022-12-17T04:33:44.475Z,970.75
2022-12-17T04:34:44.362Z,970.76
2022-12-17T04:35:44.299Z,970.79
2022-12-17T04:36:44.253Z,970.83
2022-12-17T04:37:44.172Z,970.79
2022-12-17T04:38:44.140Z,970.82
2022-12-17T04:39:44.056Z,970.82
2022-12-17T04:40:44.008Z,970.83
2022-12-17T04:41:43.962Z,970.80
2022-12-17T04:42:43.889Z,970.86
2022-12-17T04:43:43.812Z,970.87
2022-12-17T04:44:43.741Z,970.87
2022-12-17T04:45:43.716Z,970.94
2022-12-17T04:46:43.675Z,970.96
2022-12-17T04:47:43.600Z,970.94
2022-12-17T04:48:43.472Z,970.93
2022-12-17T04:49:43.413Z,970.99
2022-12-17T04:50:43.351Z,970.99
2022-12-17T04:51:43.332Z,970.95
2022-12-17T04:52:43.223Z,970.97
2022-12-17T04:53:43.230Z,970.97
2022-12-17T04:54:43.111Z,970.97
2022-12-17T04:55:43.049Z,970.99
2022-12-17T04:56:42.980Z,970.97
2022-12-17T04:57:42.969Z,970.98
2022-12-17T04:58:42.874Z,970.99
2022-12-17T04:59:42.827Z,971.06
2022-12-17T05:00:42.748Z,971.06
2022-12-17T05:01:42.744Z,971.07
2022-12-17T05:02:43.016Z,971.09
2022-12-17T05:03:42.667Z,971.08
2022-12-17T05:04:42.469Z,971.10
2022-12-17T05:05:42.405Z,971.10
2022-12-17T05:06:42.356Z,971.11
2022-12-17T05:07:42.286Z,971.10
2022-12-17T05:08:42.225Z,971.10
2022-12-17T05:09:42.184Z,971.16
2022-12-17T05:10:42.082Z,971.18
2022-12-17T05:11:42.050Z,971.19
2022-12-17T05:12:41.942Z,971.21
2022-12-17T05:13:41.902Z,971.24
2022-12-17T05:14:41.827Z,971.21
2022-12-17T05:15:41.845Z,971.25
2022-12-17T05:16:41.719Z,971.24
2022-12-17T05:17:41.634Z,971.24
2022-12-17T05:18:41.583Z,971.27
2022-12-17T05:19:41.545Z,971.29
2022-12-17T05:20:41.492Z,971.29
2022-12-17T05:21:41.403Z,971.31
2022-12-17T05:22:41.345Z,971.33
2022-12-17T05:23:41.262Z,971.30
2022-12-17T05:24:41.233Z,971.33
2022-12-17T05:25:41.147Z,971.33
2022-12-17T05:26:41.070Z,971.35
2022-12-17T05:27:40.993Z,971.36
2022-12-17T05:28:40.948Z,971.36
2022-12-17T05:29:40.900Z,971.37
2022-12-17T05:30:40.839Z,971.35
2022-12-17T05:31:40.844Z,971.35
2022-12-17T05:32:40.700Z,971.38
2022-12-17T05:33:40.613Z,971.37
2022-12-17T05:34:40.556Z,971.38
2022-12-17T05:35:40.469Z,971.38
2022-12-17T05:36:40.435Z,971.38
2022-12-17T05:37:40.345Z,971.41
2022-12-17T05:38:40.323Z,971.36
2022-12-17T05:39:40.252Z,971.37
2022-12-17T05:40:40.171Z,971.35
2022-12-17T05:41:40.111Z,971.36
2022-12-17T05:42:40.081Z,971.37
2022-12-17T05:43:40.112Z,971.37
2022-12-17T05:44:39.911Z,971.40
2022-12-17T05:45:39.836Z,971.39
2022-12-17T05:46:39.796Z,971.40
2022-12-17T05:47:39.698Z,971.39
2022-12-17T05:48:39.665Z,971.39
2022-12-17T05:49:39.625Z,971.41
2022-12-17T05:50:39.521Z,971.42
2022-12-17T05:51:39.466Z,971.46
2022-12-17T05:52:39.399Z,971.43
2022-12-17T05:53:39.582Z,971.46
2022-12-17T05:54:39.286Z,971.47
2022-12-17T05:55:39.229Z,971.47
2022-12-17T05:56:39.155Z,971.49
2022-12-17T05:57:39.081Z,971.49
2022-12-17T05:58:39.035Z,971.52
2022-12-17T05:59:38.960Z,971.50
2022-12-17T06:00:38.893Z,971.49
2022-12-17T06:01:38.852Z,971.51
2022-12-17T06:02:38.854Z,971.51
2022-12-17T06:03:39.076Z,971.50
2022-12-17T06:04:38.638Z,971.51
2022-12-17T06:05:38.536Z,971.50
2022-12-17T06:06:38.483Z,971.52
2022-12-17T06:07:38.435Z,971.56
2022-12-17T06:08:38.401Z,971.56
2022-12-17T06:09:38.312Z,971.54
2022-12-17T06:10:38.211Z,971.55
2022-12-17T06:11:38.140Z,971.55
2022-12-17T06:12:38.132Z,971.55
2022-12-17T06:13:38.249Z,971.57
2022-12-17T06:14:37.993Z,971.55
2022-12-17T06:15:37.892Z,971.51
2022-12-17T06:16:37.905Z,971.56
2022-12-17T06:17:37.792Z,971.53
2022-12-17T06:18:37.748Z,971.54
2022-12-17T06:19:37.672Z,971.56
2022-12-17T06:20:37.619Z,971.54
2022-12-17T06:21:37.554Z,971.50
2022-12-17T06:22:37.448Z,971.49
2022-12-17T06:23:37.707Z,971.51
2022-12-17T06:24:40.183Z,971.52
2022-12-17T06:25:37.288Z,971.53
2022-12-17T06:26:37.194Z,971.56
2022-12-17T06:27:37.170Z,971.57
2022-12-17T06:28:37.113Z,971.58
2022-12-17T06:29:37.028Z,971.57
2022-12-17T06:30:36.971Z,971.61
2022-12-17T06:31:36.936Z,971.63
2022-12-17T06:32:36.799Z,971.65
2022-12-17T06:33:37.098Z,971.67
2022-12-17T06:34:36.719Z,971.64
2022-12-17T06:35:36.641Z,971.66
2022-12-17T06:36:36.572Z,971.63
2022-12-17T06:37:36.481Z,971.68
2022-12-17T06:38:36.504Z,971.66
2022-12-17T06:39:36.370Z,971.67
2022-12-17T06:40:36.316Z,971.67
2022-12-17T06:41:36.243Z,971.63
2022-12-17T06:42:36.219Z,971.67
2022-12-17T06:43:36.475Z,971.66
2022-12-17T06:44:36.087Z,971.70
2022-12-17T06:45:36.024Z,971.77
2022-12-17T06:46:36.029Z,971.76
2022-12-17T06:47:35.851Z,971.75
2022-12-17T06:48:35.824Z,971.77
2022-12-17T06:49:35.751Z,971.77
2022-12-17T06:50:35.685Z,971.83
2022-12-17T06:51:35.622Z,971.80
2022-12-17T06:52:35.515Z,971.83
2022-12-17T06:53:35.800Z,971.87
2022-12-17T06:54:35.476Z,971.88
2022-12-17T06:55:35.374Z,971.88
2022-12-17T06:56:35.342Z,971.87
2022-12-17T06:57:39.180Z,971.91
2022-12-17T06:58:35.190Z,971.91
2022-12-17T06:59:35.109Z,971.90
2022-12-17T07:00:35.090Z,971.96
2022-12-17T07:01:35.101Z,971.90
2022-12-17T07:02:35.028Z,971.91
2022-12-17T07:03:35.231Z,971.98
2022-12-17T07:04:34.825Z,971.97
2022-12-17T07:05:34.719Z,972.03
2022-12-17T07:06:34.650Z,972.03
2022-12-17T07:07:34.588Z,972.00
2022-12-17T07:08:34.553Z,972.03
2022-12-17T07:09:34.448Z,972.03
2022-12-17T07:10:34.389Z,972.08
2022-12-17T07:11:34.382Z,972.12
2022-12-17T07:12:34.296Z,972.16
2022-12-17T07:13:34.444Z,972.17
2022-12-17T07:14:34.144Z,972.17
2022-12-17T07:15:34.071Z,972.19
2022-12-17T07:16:34.032Z,972.20
2022-12-17T07:17:33.964Z,972.22
2022-12-17T07:18:33.883Z,972.25
2022-12-17T07:19:33.826Z,972.27
2022-12-17T07:20:33.746Z,972.22
2022-12-17T07:21:33.684Z,972.26
2022-12-17T07:22:33.610Z,972.26
2022-12-17T07:23:34.116Z,972.28
2022-12-17T07:24:33.519Z,972.32
2022-12-17T07:25:33.431Z,972.34
2022-12-17T07:26:33.366Z,972.36
2022-12-17T07:27:33.295Z,972.41
2022-12-17T07:28:33.240Z,972.40
2022-12-17T07:29:33.193Z,972.40
2022-12-17T07:30:33.102Z,972.42
2022-12-17T07:31:33.151Z,972.45
2022-12-17T07:32:32.992Z,972.47
2022-12-17T07:33:33.107Z,972.50
2022-12-17T07:34:32.924Z,972.49
2022-12-17T07:35:32.865Z,972.52
2022-12-17T07:36:32.755Z,972.53
2022-12-17T07:37:32.664Z,972.53
2022-12-17T07:38:32.612Z,972.60
2022-12-17T07:39:32.558Z,972.57
2022-12-17T07:40:32.456Z,972.59
2022-12-17T07:41:32.411Z,972.61
2022-12-17T07:42:32.339Z,972.63
2022-12-17T07:43:32.304Z,972.64
2022-12-17T07:44:32.375Z,972.70
2022-12-17T07:45:32.218Z,972.67
2022-12-17T07:46:32.082Z,972.69
2022-12-17T07:47:32.029Z,972.71
2022-12-17T07:48:31.997Z,972.72
2022-12-17T07:49:31.932Z,972.74
2022-12-17T07:50:31.830Z,972.76
2022-12-17T07:51:31.800Z,972.76
2022-12-17T07:52:31.695Z,972.81
2022-12-17T07:53:31.677Z,972.77
2022-12-17T07:54:31.588Z,972.81
2022-12-17T07:55:31.526Z,972.79
2022-12-17T07:56:31.473Z,972.81
2022-12-17T07:57:31.388Z,972.81
2022-12-17T07:58:31.348Z,972.92
2022-12-17T07:59:31.320Z,972.93
2022-12-17T08:00:31.217Z,972.93
2022-12-17T08:01:31.273Z,972.90
2022-12-17T08:02:31.265Z,972.96
2022-12-17T08:03:31.141Z,972.98
2022-12-17T08:04:30.964Z,972.98
2022-12-17T08:05:30.908Z,973.02
2022-12-17T08:06:30.869Z,973.02
2022-12-17T08:07:30.774Z,973.04
2022-12-17T08:08:30.696Z,973.07
2022-12-17T08:09:30.660Z,973.10
2022-12-17T08:10:30.564Z,973.08
2022-12-17T08:11:30.518Z,973.15
2022-12-17T08:12:30.472Z,973.22
2022-12-17T08:13:30.372Z,973.44
2022-12-17T08:14:30.350Z,973.60
2022-12-17T08:15:30.261Z,973.68
2022-12-17T08:16:30.209Z,973.69
2022-12-17T08:17:30.130Z,973.71
2022-12-17T08:18:30.076Z,973.75
2022-12-17T08:19:29.997Z,973.78
2022-12-17T08:20:29.927Z,973.80
2022-12-17T08:21:29.879Z,973.83
2022-12-17T08:22:29.927Z,973.89
2022-12-17T08:23:29.915Z,973.92
2022-12-17T08:24:29.922Z,973.92
2022-12-17T08:25:29.893Z,973.94
2022-12-17T08:26:29.575Z,973.99
2022-12-17T08:27:29.499Z,974.05
2022-12-17T08:29:29.385Z,974.05
2022-12-17T08:30:29.468Z,974.13
2022-12-17T08:31:29.254Z,974.11
2022-12-17T08:32:29.205Z,974.15
2022-12-17T08:33:29.132Z,974.21
2022-12-17T08:34:29.079Z,974.23
2022-12-17T08:35:29.052Z,974.25
2022-12-17T08:36:29.032Z,974.23
2022-12-17T08:37:28.952Z,974.23
2022-12-17T08:38:28.916Z,974.25
2022-12-17T08:39:28.840Z,974.23
2022-12-17T08:40:28.790Z,974.26
2022-12-17T08:41:28.709Z,974.30
2022-12-17T08:42:28.716Z,974.33
2022-12-17T08:43:28.627Z,974.36
2022-12-17T08:44:28.583Z,974.37
2022-12-17T08:45:28.522Z,974.37
2022-12-17T08:46:28.558Z,974.39
2022-12-17T08:47:28.418Z,974.41
2022-12-17T08:48:28.368Z,974.44
2022-12-17T08:49:28.324Z,974.42
2022-12-17T08:50:28.288Z,974.43
2022-12-17T08:51:28.225Z,974.44
2022-12-17T08:52:28.182Z,974.45
2022-12-17T08:53:33.296Z,974.44
2022-12-17T08:54:28.098Z,974.45
2022-12-17T08:55:28.007Z,974.53
2022-12-17T08:56:27.954Z,974.53
2022-12-17T08:57:31.822Z,974.57
2022-12-17T08:58:27.890Z,974.57
2022-12-17T08:59:27.823Z,974.62
2022-12-17T09:00:27.763Z,974.59
2022-12-17T09:01:27.855Z,974.62
2022-12-17T09:02:27.800Z,974.62
2022-12-17T09:03:27.726Z,974.64
2022-12-17T09:04:27.608Z,974.68
2022-12-17T09:05:27.512Z,974.66
2022-12-17T09:06:27.472Z,974.68
2022-12-17T09:07:27.436Z,974.66
2022-12-17T09:08:27.364Z,974.72
2022-12-17T09:09:27.331Z,974.75
2022-12-17T09:10:27.256Z,974.79
2022-12-17T09:11:27.225Z,974.80
2022-12-17T09:12:27.207Z,974.83
2022-12-17T09:13:27.293Z,974.82
2022-12-17T09:14:27.107Z,974.85
2022-12-17T09:15:27.072Z,974.85
2022-12-17T09:16:27.081Z,974.84
2022-12-17T09:17:26.930Z,974.85
2022-12-17T09:18:26.919Z,974.91
2022-12-17T09:19:26.855Z,974.93
2022-12-17T09:20:29.401Z,974.95
2022-12-17T09:21:26.766Z,974.98
2022-12-17T09:22:26.716Z,975.06
2022-12-17T09:23:26.685Z,975.06
2022-12-17T09:24:26.622Z,974.92
2022-12-17T09:25:26.606Z,975.03
2022-12-17T09:26:26.530Z,975.02
2022-12-17T09:27:26.488Z,974.99
2022-12-17T09:28:26.444Z,975.00
2022-12-17T09:29:26.388Z,975.02
2022-12-17T09:30:26.403Z,975.02
2022-12-17T09:31:26.356Z,975.06
2022-12-17T09:32:26.246Z,975.05
2022-12-17T09:33:27.102Z,975.06
2022-12-17T09:34:26.160Z,975.05
2022-12-17T09:35:26.130Z,975.10
2022-12-17T09:36:26.077Z,975.10
2022-12-17T09:37:26.019Z,975.08
2022-12-17T09:38:25.969Z,974.66
2022-12-17T09:39:25.941Z,975.12
2022-12-17T09:40:25.881Z,975.14
2022-12-17T09:41:25.873Z,975.12
2022-12-17T09:42:25.796Z,975.11
2022-12-17T09:43:25.737Z,975.10
2022-12-17T09:44:25.719Z,975.14
2022-12-17T09:45:25.674Z,975.14
2022-12-17T09:46:25.690Z,975.17
2022-12-17T09:47:25.563Z,975.16
2022-12-17T09:48:30.808Z,975.17
2022-12-17T09:49:25.483Z,975.16
2022-12-17T09:50:25.468Z,974.88
2022-12-17T09:51:25.386Z,975.06
2022-12-17T09:52:25.352Z,975.10
2022-12-17T09:53:25.296Z,975.24
2022-12-17T09:54:25.255Z,975.22
2022-12-17T09:55:25.258Z,975.23
2022-12-17T09:56:25.155Z,975.26
2022-12-17T09:57:25.081Z,975.24
2022-12-17T09:58:25.096Z,975.27
2022-12-17T09:59:25.069Z,975.24
2022-12-17T10:00:24.978Z,975.25
2022-12-17T10:01:25.015Z,975.25
2022-12-17T10:02:25.205Z,975.22
2022-12-17T10:03:24.903Z,975.22
2022-12-17T10:04:24.782Z,975.19
2022-12-17T10:05:24.776Z,975.21
2022-12-17T10:06:24.703Z,975.26
2022-12-17T10:07:24.644Z,975.22
2022-12-17T10:08:24.640Z,975.22
2022-12-17T10:09:24.642Z,975.25
2022-12-17T10:10:24.615Z,975.23
2022-12-17T10:11:24.481Z,975.23
2022-12-17T10:12:24.426Z,975.28
2022-12-17T10:13:24.395Z,975.29
2022-12-17T10:14:24.344Z,975.31
2022-12-17T10:15:24.322Z,975.33
2022-12-17T10:16:24.305Z,975.30
2022-12-17T10:17:24.235Z,975.30
2022-12-17T10:18:24.216Z,975.31
2022-12-17T10:19:24.150Z,975.33
2022-12-17T10:20:24.080Z,975.30
2022-12-17T10:21:24.074Z,975.30
2022-12-17T10:22:24.168Z,975.27
2022-12-17T10:23:23.998Z,975.22
2022-12-17T10:24:23.925Z,975.22
2022-12-17T10:25:23.877Z,975.24
2022-12-17T10:26:23.815Z,975.27
2022-12-17T10:27:23.738Z,975.28
2022-12-17T10:28:23.755Z,975.24
2022-12-17T10:29:23.670Z,975.20
2022-12-17T10:30:23.600Z,975.24
2022-12-17T10:31:23.682Z,975.23
2022-12-17T10:32:23.539Z,975.23
2022-12-17T10:33:23.490Z,975.26
2022-12-17T10:34:23.447Z,975.26
2022-12-17T10:35:23.406Z,975.24
2022-12-17T10:36:23.385Z,975.22
2022-12-17T10:37:23.457Z,975.20
2022-12-17T10:38:23.263Z,975.18
2022-12-17T10:39:23.211Z,975.20
2022-12-17T10:40:23.172Z,975.14
2022-12-17T10:41:23.123Z,975.15
2022-12-17T10:42:23.130Z,975.15
2022-12-17T10:43:23.047Z,975.19
2022-12-17T10:44:23.005Z,975.23
2022-12-17T10:45:23.044Z,975.28
2022-12-17T10:46:22.997Z,975.32
2022-12-17T10:47:22.936Z,975.39
2022-12-17T10:48:22.812Z,975.36
2022-12-17T10:49:22.773Z,975.37
2022-12-17T10:50:22.761Z,975.38
2022-12-17T10:51:22.673Z,975.33
2022-12-17T10:52:22.585Z,975.24
2022-12-17T10:53:22.596Z,975.13
2022-12-17T10:54:22.536Z,975.02
2022-12-17T10:55:22.497Z,974.91
2022-12-17T10:56:22.431Z,974.87
2022-12-17T10:57:22.357Z,974.82
2022-12-17T10:58:22.400Z,974.80
2022-12-17T10:59:22.307Z,974.80
2022-12-17T11:00:22.275Z,974.81
2022-12-17T11:01:22.353Z,974.79
2022-12-17T11:02:22.399Z,974.81
2022-12-17T11:03:22.189Z,974.84
2022-12-17T11:04:22.152Z,974.85
2022-12-17T11:05:22.059Z,974.80
2022-12-17T11:06:22.025Z,974.81
2022-12-17T11:07:21.952Z,974.82
2022-12-17T11:08:21.900Z,974.80
2022-12-17T11:09:21.893Z,974.81
2022-12-17T11:10:21.807Z,974.83
2022-12-17T11:11:21.775Z,974.83
2022-12-17T11:12:24.633Z,974.85
2022-12-17T11:13:21.742Z,974.84
2022-12-17T11:14:21.604Z,974.81
2022-12-17T11:15:21.522Z,974.79
2022-12-17T11:16:21.579Z,974.77
2022-12-17T11:17:21.471Z,974.74
2022-12-17T11:18:21.374Z,974.70
2022-12-17T11:19:21.389Z,974.73
2022-12-17T11:20:21.320Z,974.71
2022-12-17T11:21:21.231Z,974.70
2022-12-17T11:22:21.217Z,974.72
2022-12-17T11:23:21.184Z,974.78
2022-12-17T11:24:22.925Z,974.73
2022-12-17T11:25:21.098Z,974.75
2022-12-17T11:26:21.050Z,974.76
2022-12-17T11:27:20.993Z,974.77
2022-12-17T11:28:20.942Z,974.79
2022-12-17T11:29:20.882Z,974.74
2022-12-17T11:30:21.012Z,974.73
2022-12-17T11:31:20.876Z,974.68
2022-12-17T11:32:20.736Z,974.72
2022-12-17T11:33:20.652Z,974.73
2022-12-17T11:34:20.611Z,974.70
2022-12-17T11:35:20.558Z,974.68
2022-12-17T11:36:25.831Z,974.69
2022-12-17T11:37:20.468Z,974.67
2022-12-17T11:38:20.417Z,974.66
2022-12-17T11:39:20.392Z,974.67
2022-12-17T11:40:20.325Z,974.66
2022-12-17T11:41:20.285Z,974.62
2022-12-17T11:42:20.215Z,974.63
2022-12-17T11:43:20.160Z,974.64
2022-12-17T11:44:20.128Z,974.60
2022-12-17T11:45:20.084Z,974.63
2022-12-17T11:46:20.134Z,974.60
2022-12-17T11:47:19.997Z,974.65
2022-12-17T11:48:19.922Z,974.68
2022-12-17T11:49:19.853Z,974.65
2022-12-17T11:50:19.822Z,974.61
2022-12-17T11:51:19.776Z,974.64
2022-12-17T11:52:19.693Z,974.67
2022-12-17T11:53:26.008Z,974.66
2022-12-17T11:54:19.612Z,974.70
2022-12-17T11:55:19.556Z,974.71
2022-12-17T11:56:19.527Z,974.69
2022-12-17T11:57:19.460Z,974.72
2022-12-17T11:58:19.378Z,974.73
2022-12-17T11:59:19.332Z,974.70
2022-12-17T12:00:19.267Z,974.64
2022-12-17T12:01:19.358Z,974.66
2022-12-17T12:02:19.183Z,974.63
2022-12-17T12:03:19.240Z,974.61
2022-12-17T12:04:19.116Z,974.62
2022-12-17T12:05:19.053Z,974.63
2022-12-17T12:06:18.958Z,974.64
2022-12-17T12:07:18.928Z,974.62
2022-12-17T12:08:18.882Z,974.63
2022-12-17T12:09:18.837Z,974.65
2022-12-17T12:10:18.748Z,974.65
2022-12-17T12:11:18.742Z,974.65
2022-12-17T12:12:18.661Z,974.65
2022-12-17T12:13:18.629Z,974.65
2022-12-17T12:14:18.576Z,974.65
2022-12-17T12:15:18.493Z,974.58
2022-12-17T12:16:18.475Z,974.60
2022-12-17T12:17:18.383Z,974.60
2022-12-17T12:18:18.364Z,974.64
2022-12-17T12:19:18.304Z,974.64
2022-12-17T12:20:18.228Z,974.61
2022-12-17T12:21:18.170Z,974.62
2022-12-17T12:22:18.101Z,974.57
2022-12-17T12:23:18.039Z,974.58
2022-12-17T12:24:18.012Z,974.61
2022-12-17T12:25:17.982Z,974.61
2022-12-17T12:26:17.902Z,974.61
2022-12-17T12:27:17.824Z,974.64
2022-12-17T12:28:17.777Z,974.63